sensor_id;sensor_type;location;lat;lon;timestamp;temperature;humidity
20446;DHT22;10382;49.140;9.234;2022-12-07T00:01:25;6.30;99.90
20446;DHT22;10382;49.140;9.234;2022-12-07T00:03:55;6.30;99.90
20446;DHT22;10382;49.140;9.234;2022-12-07T00:06:26;6.40;99.90
20446;DHT22;10382;49.140;9.234;2022-12-07T00:08:53;6.40;99.90
20446;DHT22;10382;49.140;9.234;2022-12-07T00:11:22;6.40;99.90
20446;DHT22;10382;49.140;9.234;2022-12-07T00:13:52;6.40;99.90
20446;DHT22;10382;49.140;9.234;2022-12-07T00:16:21;6.50;99.90
20446;DHT22;10382;49.140;9.234;2022-12-07T00:18:48;6.50;99.90
20446;DHT22;10382;49.140;9.234;2022-12-07T00:21:18;6.50;99.90
20446;DHT22;10382;49.140;9.234;2022-12-07T00:23:47;6.40;99.90
20446;DHT22;10382;49.140;9.234;2022-12-07T00:26:15;6.40;99.90
20446;DHT22;10382;49.140;9.234;2022-12-07T00:28:45;6.30;99.90
20446;DHT22;10382;49.140;9.234;2022-12-07T00:31:14;6.30;99.90
20446;DHT22;10382;49.140;9.234;2022-12-07T00:33:41;6.30;99.90
20446;DHT22;10382;49.140;9.234;2022-12-07T00:36:10;6.30;99.90
20446;DHT22;10382;49.140;9.234;2022-12-07T00:38:39;6.20;99.90
20446;DHT22;10382;49.140;9.234;2022-12-07T00:41:09;6.20;99.90
20446;DHT22;10382;49.140;9.234;2022-12-07T00:43:36;6.10;99.90
20446;DHT22;10382;49.140;9.234;2022-12-07T00:46:04;6.10;99.90
20446;DHT22;10382;49.140;9.234;2022-12-07T00:48:30;6.10;99.90
20446;DHT22;10382;49.140;9.234;2022-12-07T00:50:57;6.10;99.90
20446;DHT22;10382;49.140;9.234;2022-12-07T00:53:25;6.20;99.90
20446;DHT22;10382;49.140;9.234;2022-12-07T00:55:53;6.20;99.90
20446;DHT22;10382;49.140;9.234;2022-12-07T00:58:21;6.20;99.90
20446;DHT22;10382;49.140;9.234;2022-12-07T01:00:48;6.20;99.90
20446;DHT22;10382;49.140;9.234;2022-12-07T01:03:16;6.20;99.90
20446;DHT22;10382;49.140;9.234;2022-12-07T01:05:49;6.10;99.90
20446;DHT22;10382;49.140;9.234;2022-12-07T01:08:17;6.00;99.90
20446;DHT22;10382;49.140;9.234;2022-12-07T01:10:44;6.00;99.90
20446;DHT22;10382;49.140;9.234;2022-12-07T01:13:12;6.00;99.90
20446;DHT22;10382;49.140;9.234;2022-12-07T01:15:39;6.10;99.90
20446;DHT22;10382;49.140;9.234;2022-12-07T01:18:06;6.10;99.90
20446;DHT22;10382;49.140;9.234;2022-12-07T01:20:33;6.20;99.90
20446;DHT22;10382;49.140;9.234;2022-12-07T01:23:00;6.20;99.90
20446;DHT22;10382;49.140;9.234;2022-12-07T01:25:27;6.20;99.90
20446;DHT22;10382;49.140;9.234;2022-12-07T01:27:54;6.20;99.90
20446;DHT22;10382;49.140;9.234;2022-12-07T01:30:22;6.10;99.90
20446;DHT22;10382;49.140;9.234;2022-12-07T01:32:49;6.10;99.90
20446;DHT22;10382;49.140;9.234;2022-12-07T01:35:16;6.10;99.90
20446;DHT22;10382;49.140;9.234;2022-12-07T01:37:43;6.00;99.90
20446;DHT22;10382;49.140;9.234;2022-12-07T01:40:10;6.00;99.90
20446;DHT22;10382;49.140;9.234;2022-12-07T01:42:37;6.10;99.90
20446;DHT22;10382;49.140;9.234;2022-12-07T01:48:07;6.20;99.90
20446;DHT22;10382;49.140;9.234;2022-12-07T01:50:35;6.30;99.90
20446;DHT22;10382;49.140;9.234;2022-12-07T01:53:05;6.40;99.90
20446;DHT22;10382;49.140;9.234;2022-12-07T01:55:34;6.40;99.90
20446;DHT22;10382;49.140;9.234;2022-12-07T01:58:04;6.50;99.90
20446;DHT22;10382;49.140;9.234;2022-12-07T02:00:31;6.50;99.90
20446;DHT22;10382;49.140;9.234;2022-12-07T02:03:03;6.50;99.90
20446;DHT22;10382;49.140;9.234;2022-12-07T02:05:34;6.60;99.90
20446;DHT22;10382;49.140;9.234;2022-12-07T02:08:02;6.60;99.90
20446;DHT22;10382;49.140;9.234;2022-12-07T02:10:31;6.60;99.90
20446;DHT22;10382;49.140;9.234;2022-12-07T02:13:01;6.60;99.90
20446;DHT22;10382;49.140;9.234;2022-12-07T02:15:35;6.60;99.90
20446;DHT22;10382;49.140;9.234;2022-12-07T02:18:09;6.60;99.90
20446;DHT22;10382;49.140;9.234;2022-12-07T02:20:42;6.60;99.90
20446;DHT22;10382;49.140;9.234;2022-12-07T02:23:34;6.60;99.90
20446;DHT22;10382;49.140;9.234;2022-12-07T02:29:18;6.20;99.90
20446;DHT22;10382;49.140;9.234;2022-12-07T02:31:56;6.20;99.90
20446;DHT22;10382;49.140;9.234;2022-12-07T02:34:34;6.20;99.90
20446;DHT22;10382;49.140;9.234;2022-12-07T02:37:05;6.20;99.90
20446;DHT22;10382;49.140;9.234;2022-12-07T02:39:39;6.30;99.90
20446;DHT22;10382;49.140;9.234;2022-12-07T02:42:14;6.30;99.90
20446;DHT22;10382;49.140;9.234;2022-12-07T02:44:44;6.30;99.90
20446;DHT22;10382;49.140;9.234;2022-12-07T02:47:14;6.40;99.90
20446;DHT22;10382;49.140;9.234;2022-12-07T02:49:43;6.40;99.90
20446;DHT22;10382;49.140;9.234;2022-12-07T02:52:11;6.40;99.90
20446;DHT22;10382;49.140;9.234;2022-12-07T02:54:38;6.30;99.90
20446;DHT22;10382;49.140;9.234;2022-12-07T02:57:20;6.30;99.90
20446;DHT22;10382;49.140;9.234;2022-12-07T03:00:00;6.30;99.90
20446;DHT22;10382;49.140;9.234;2022-12-07T03:02:34;6.20;99.90
20446;DHT22;10382;49.140;9.234;2022-12-07T03:05:18;6.10;99.90
20446;DHT22;10382;49.140;9.234;2022-12-07T03:07:53;6.10;99.90
20446;DHT22;10382;49.140;9.234;2022-12-07T03:10:27;6.00;99.90
20446;DHT22;10382;49.140;9.234;2022-12-07T03:13:02;5.90;99.90
20446;DHT22;10382;49.140;9.234;2022-12-07T03:15:33;5.70;99.90
20446;DHT22;10382;49.140;9.234;2022-12-07T03:18:04;5.50;99.90
20446;DHT22;10382;49.140;9.234;2022-12-07T03:20:32;5.40;99.90
20446;DHT22;10382;49.140;9.234;2022-12-07T03:23:00;5.30;99.90
20446;DHT22;10382;49.140;9.234;2022-12-07T03:25:29;5.20;99.90
20446;DHT22;10382;49.140;9.234;2022-12-07T03:28:00;5.10;99.90
20446;DHT22;10382;49.140;9.234;2022-12-07T03:30:32;5.10;99.90
20446;DHT22;10382;49.140;9.234;2022-12-07T03:33:06;5.00;99.90
20446;DHT22;10382;49.140;9.234;2022-12-07T03:35:37;5.00;99.90
20446;DHT22;10382;49.140;9.234;2022-12-07T03:38:13;4.90;99.90
20446;DHT22;10382;49.140;9.234;2022-12-07T03:40:44;4.90;99.90
20446;DHT22;10382;49.140;9.234;2022-12-07T03:43:16;4.90;99.90
20446;DHT22;10382;49.140;9.234;2022-12-07T03:45:51;5.00;99.90
20446;DHT22;10382;49.140;9.234;2022-12-07T03:48:25;5.20;99.90
20446;DHT22;10382;49.140;9.234;2022-12-07T03:50:58;5.30;99.90
20446;DHT22;10382;49.140;9.234;2022-12-07T03:53:30;5.50;99.90
20446;DHT22;10382;49.140;9.234;2022-12-07T03:56:00;5.60;99.90
20446;DHT22;10382;49.140;9.234;2022-12-07T03:58:30;5.60;99.90
20446;DHT22;10382;49.140;9.234;2022-12-07T04:00:58;5.50;99.90
20446;DHT22;10382;49.140;9.234;2022-12-07T04:03:25;5.40;99.90
20446;DHT22;10382;49.140;9.234;2022-12-07T04:05:52;5.50;99.90
20446;DHT22;10382;49.140;9.234;2022-12-07T04:08:19;5.50;99.90
20446;DHT22;10382;49.140;9.234;2022-12-07T04:10:46;5.70;99.90
20446;DHT22;10382;49.140;9.234;2022-12-07T04:13:13;5.70;99.90
20446;DHT22;10382;49.140;9.234;2022-12-07T04:15:40;5.90;99.90
20446;DHT22;10382;49.140;9.234;2022-12-07T04:18:08;5.90;99.90
20446;DHT22;10382;49.140;9.234;2022-12-07T04:20:35;5.90;99.90
20446;DHT22;10382;49.140;9.234;2022-12-07T04:23:02;5.90;99.90
20446;DHT22;10382;49.140;9.234;2022-12-07T04:25:29;5.90;99.90
20446;DHT22;10382;49.140;9.234;2022-12-07T04:27:55;5.80;99.90
20446;DHT22;10382;49.140;9.234;2022-12-07T04:30:22;5.80;99.90
20446;DHT22;10382;49.140;9.234;2022-12-07T04:32:49;5.80;99.90
20446;DHT22;10382;49.140;9.234;2022-12-07T04:35:17;5.80;99.90
20446;DHT22;10382;49.140;9.234;2022-12-07T04:37:44;5.80;99.90
20446;DHT22;10382;49.140;9.234;2022-12-07T04:40:11;5.70;99.90
20446;DHT22;10382;49.140;9.234;2022-12-07T04:42:39;5.80;99.90
20446;DHT22;10382;49.140;9.234;2022-12-07T04:45:07;5.80;99.90
20446;DHT22;10382;49.140;9.234;2022-12-07T04:47:35;5.80;99.90
20446;DHT22;10382;49.140;9.234;2022-12-07T04:50:02;5.80;99.90
20446;DHT22;10382;49.140;9.234;2022-12-07T04:52:30;5.90;99.90
20446;DHT22;10382;49.140;9.234;2022-12-07T04:54:57;5.90;99.90
20446;DHT22;10382;49.140;9.234;2022-12-07T04:57:25;5.90;99.90
20446;DHT22;10382;49.140;9.234;2022-12-07T04:59:52;6.00;99.90
20446;DHT22;10382;49.140;9.234;2022-12-07T05:02:19;5.90;99.90
20446;DHT22;10382;49.140;9.234;2022-12-07T05:04:46;5.80;99.90
20446;DHT22;10382;49.140;9.234;2022-12-07T05:07:13;5.70;99.90
20446;DHT22;10382;49.140;9.234;2022-12-07T05:09:41;5.70;99.90
20446;DHT22;10382;49.140;9.234;2022-12-07T05:12:09;5.80;99.90
20446;DHT22;10382;49.140;9.234;2022-12-07T05:14:36;5.80;99.90
20446;DHT22;10382;49.140;9.234;2022-12-07T05:17:04;5.90;99.90
20446;DHT22;10382;49.140;9.234;2022-12-07T05:19:32;5.90;99.90
20446;DHT22;10382;49.140;9.234;2022-12-07T05:22:00;5.80;99.90
20446;DHT22;10382;49.140;9.234;2022-12-07T05:24:27;5.80;99.90
20446;DHT22;10382;49.140;9.234;2022-12-07T05:26:56;5.70;99.90
20446;DHT22;10382;49.140;9.234;2022-12-07T05:29:24;5.60;99.90
20446;DHT22;10382;49.140;9.234;2022-12-07T05:31:51;5.50;99.90
20446;DHT22;10382;49.140;9.234;2022-12-07T05:34:18;5.50;99.90
20446;DHT22;10382;49.140;9.234;2022-12-07T05:36:46;5.50;99.90
20446;DHT22;10382;49.140;9.234;2022-12-07T05:39:13;5.40;99.90
20446;DHT22;10382;49.140;9.234;2022-12-07T05:41:40;5.40;99.90
20446;DHT22;10382;49.140;9.234;2022-12-07T05:44:26;5.40;99.90
20446;DHT22;10382;49.140;9.234;2022-12-07T05:46:53;5.50;99.90
20446;DHT22;10382;49.140;9.234;2022-12-07T05:49:20;5.50;99.90
20446;DHT22;10382;49.140;9.234;2022-12-07T05:51:47;5.60;99.90
20446;DHT22;10382;49.140;9.234;2022-12-07T05:54:14;5.60;99.90
20446;DHT22;10382;49.140;9.234;2022-12-07T05:56:41;5.60;99.90
20446;DHT22;10382;49.140;9.234;2022-12-07T05:59:08;5.60;99.90
20446;DHT22;10382;49.140;9.234;2022-12-07T06:01:54;5.60;99.90
20446;DHT22;10382;49.140;9.234;2022-12-07T06:04:22;5.60;99.90
20446;DHT22;10382;49.140;9.234;2022-12-07T06:06:49;5.60;99.90
20446;DHT22;10382;49.140;9.234;2022-12-07T06:09:16;5.50;99.90
20446;DHT22;10382;49.140;9.234;2022-12-07T06:11:44;5.50;99.90
20446;DHT22;10382;49.140;9.234;2022-12-07T06:14:28;5.50;99.90
20446;DHT22;10382;49.140;9.234;2022-12-07T06:16:57;5.50;99.90
20446;DHT22;10382;49.140;9.234;2022-12-07T06:19:24;5.40;99.90
20446;DHT22;10382;49.140;9.234;2022-12-07T06:21:51;5.30;99.90
20446;DHT22;10382;49.140;9.234;2022-12-07T06:24:18;5.20;99.90
20446;DHT22;10382;49.140;9.234;2022-12-07T06:26:45;5.20;99.90
20446;DHT22;10382;49.140;9.234;2022-12-07T06:29:12;5.10;99.90
20446;DHT22;10382;49.140;9.234;2022-12-07T06:31:39;5.20;99.90
20446;DHT22;10382;49.140;9.234;2022-12-07T06:34:11;5.10;99.90
20446;DHT22;10382;49.140;9.234;2022-12-07T06:36:38;5.10;99.90
20446;DHT22;10382;49.140;9.234;2022-12-07T06:39:05;5.20;99.90
20446;DHT22;10382;49.140;9.234;2022-12-07T06:41:34;5.20;99.90
20446;DHT22;10382;49.140;9.234;2022-12-07T06:44:01;5.10;99.90
20446;DHT22;10382;49.140;9.234;2022-12-07T06:46:28;5.10;99.90
20446;DHT22;10382;49.140;9.234;2022-12-07T06:48:55;5.20;99.90
20446;DHT22;10382;49.140;9.234;2022-12-07T06:51:23;5.30;99.90
20446;DHT22;10382;49.140;9.234;2022-12-07T06:53:50;5.30;99.90
20446;DHT22;10382;49.140;9.234;2022-12-07T06:56:17;5.40;99.90
20446;DHT22;10382;49.140;9.234;2022-12-07T06:58:44;5.50;99.90
20446;DHT22;10382;49.140;9.234;2022-12-07T07:01:12;5.60;99.90
20446;DHT22;10382;49.140;9.234;2022-12-07T07:03:39;5.70;99.90
20446;DHT22;10382;49.140;9.234;2022-12-07T07:06:07;5.80;99.90
20446;DHT22;10382;49.140;9.234;2022-12-07T07:08:35;5.90;99.90
20446;DHT22;10382;49.140;9.234;2022-12-07T07:11:02;6.00;99.90
20446;DHT22;10382;49.140;9.234;2022-12-07T07:13:29;6.00;99.90
20446;DHT22;10382;49.140;9.234;2022-12-07T07:15:56;6.00;99.90
20446;DHT22;10382;49.140;9.234;2022-12-07T07:18:23;6.10;99.90
20446;DHT22;10382;49.140;9.234;2022-12-07T07:20:50;6.10;99.90
20446;DHT22;10382;49.140;9.234;2022-12-07T07:23:18;6.20;99.90
20446;DHT22;10382;49.140;9.234;2022-12-07T07:25:47;6.00;99.90
20446;DHT22;10382;49.140;9.234;2022-12-07T07:28:14;6.00;99.90
20446;DHT22;10382;49.140;9.234;2022-12-07T07:30:41;5.90;99.90
20446;DHT22;10382;49.140;9.234;2022-12-07T07:33:09;5.80;99.90
20446;DHT22;10382;49.140;9.234;2022-12-07T07:35:37;5.80;99.90
20446;DHT22;10382;49.140;9.234;2022-12-07T07:38:04;5.80;99.90
20446;DHT22;10382;49.140;9.234;2022-12-07T07:40:31;5.80;99.90
20446;DHT22;10382;49.140;9.234;2022-12-07T07:42:59;5.90;99.90
20446;DHT22;10382;49.140;9.234;2022-12-07T07:45:27;5.90;99.90
20446;DHT22;10382;49.140;9.234;2022-12-07T07:47:54;6.00;99.90
20446;DHT22;10382;49.140;9.234;2022-12-07T07:50:21;6.00;99.90
20446;DHT22;10382;49.140;9.234;2022-12-07T07:52:48;6.00;99.90
20446;DHT22;10382;49.140;9.234;2022-12-07T07:55:15;6.10;99.90
20446;DHT22;10382;49.140;9.234;2022-12-07T07:57:42;6.10;99.90
20446;DHT22;10382;49.140;9.234;2022-12-07T08:00:12;6.10;99.90
20446;DHT22;10382;49.140;9.234;2022-12-07T08:02:40;6.20;99.90
20446;DHT22;10382;49.140;9.234;2022-12-07T08:05:08;6.20;99.90
20446;DHT22;10382;49.140;9.234;2022-12-07T08:07:35;6.30;99.90
20446;DHT22;10382;49.140;9.234;2022-12-07T08:10:03;6.40;99.90
20446;DHT22;10382;49.140;9.234;2022-12-07T08:12:30;6.30;99.90
20446;DHT22;10382;49.140;9.234;2022-12-07T08:14:56;6.20;99.90
20446;DHT22;10382;49.140;9.234;2022-12-07T08:17:25;6.20;99.90
20446;DHT22;10382;49.140;9.234;2022-12-07T08:19:52;6.10;99.90
20446;DHT22;10382;49.140;9.234;2022-12-07T08:22:19;6.20;99.90
20446;DHT22;10382;49.140;9.234;2022-12-07T08:24:46;6.10;99.90
20446;DHT22;10382;49.140;9.234;2022-12-07T08:27:13;6.00;99.90
20446;DHT22;10382;49.140;9.234;2022-12-07T08:29:39;6.00;99.90
20446;DHT22;10382;49.140;9.234;2022-12-07T08:32:06;5.90;99.90
20446;DHT22;10382;49.140;9.234;2022-12-07T08:34:35;6.00;99.90
20446;DHT22;10382;49.140;9.234;2022-12-07T08:37:02;6.10;99.90
20446;DHT22;10382;49.140;9.234;2022-12-07T08:39:29;6.20;99.90
20446;DHT22;10382;49.140;9.234;2022-12-07T08:41:56;6.30;99.90
20446;DHT22;10382;49.140;9.234;2022-12-07T08:44:23;6.30;99.90
20446;DHT22;10382;49.140;9.234;2022-12-07T08:46:51;6.30;99.90
20446;DHT22;10382;49.140;9.234;2022-12-07T08:49:21;6.40;99.90
20446;DHT22;10382;49.140;9.234;2022-12-07T08:51:51;6.30;99.90
20446;DHT22;10382;49.140;9.234;2022-12-07T08:54:18;6.20;99.90
20446;DHT22;10382;49.140;9.234;2022-12-07T08:56:46;6.20;99.90
20446;DHT22;10382;49.140;9.234;2022-12-07T08:59:15;6.20;99.90
20446;DHT22;10382;49.140;9.234;2022-12-07T09:01:44;6.30;99.90
20446;DHT22;10382;49.140;9.234;2022-12-07T09:04:10;6.20;99.90
20446;DHT22;10382;49.140;9.234;2022-12-07T09:06:38;6.00;99.90
20446;DHT22;10382;49.140;9.234;2022-12-07T09:09:06;5.80;99.90
20446;DHT22;10382;49.140;9.234;2022-12-07T09:11:34;5.70;99.90
20446;DHT22;10382;49.140;9.234;2022-12-07T09:14:01;5.80;99.90
20446;DHT22;10382;49.140;9.234;2022-12-07T09:16:28;5.90;99.90
20446;DHT22;10382;49.140;9.234;2022-12-07T09:18:55;5.90;99.90
20446;DHT22;10382;49.140;9.234;2022-12-07T09:21:21;6.10;99.90
20446;DHT22;10382;49.140;9.234;2022-12-07T09:23:48;6.10;99.90
20446;DHT22;10382;49.140;9.234;2022-12-07T09:26:16;6.30;99.90
20446;DHT22;10382;49.140;9.234;2022-12-07T09:28:43;6.40;99.90
20446;DHT22;10382;49.140;9.234;2022-12-07T09:31:10;6.60;99.90
20446;DHT22;10382;49.140;9.234;2022-12-07T09:33:37;6.70;99.90
20446;DHT22;10382;49.140;9.234;2022-12-07T09:36:04;6.60;99.90
20446;DHT22;10382;49.140;9.234;2022-12-07T09:38:31;6.70;99.90
20446;DHT22;10382;49.140;9.234;2022-12-07T09:41:04;6.60;99.90
20446;DHT22;10382;49.140;9.234;2022-12-07T09:43:34;6.60;99.90
20446;DHT22;10382;49.140;9.234;2022-12-07T09:46:01;6.60;99.90
20446;DHT22;10382;49.140;9.234;2022-12-07T09:48:31;6.60;99.90
20446;DHT22;10382;49.140;9.234;2022-12-07T09:51:00;6.60;99.90
20446;DHT22;10382;49.140;9.234;2022-12-07T09:53:29;6.60;99.90
20446;DHT22;10382;49.140;9.234;2022-12-07T09:55:57;6.70;99.90
20446;DHT22;10382;49.140;9.234;2022-12-07T09:58:26;6.80;99.90
20446;DHT22;10382;49.140;9.234;2022-12-07T10:00:57;6.90;99.90
20446;DHT22;10382;49.140;9.234;2022-12-07T10:03:26;6.80;99.90
20446;DHT22;10382;49.140;9.234;2022-12-07T10:05:54;6.60;99.90
20446;DHT22;10382;49.140;9.234;2022-12-07T10:08:21;6.40;99.90
20446;DHT22;10382;49.140;9.234;2022-12-07T10:10:51;6.40;99.90
20446;DHT22;10382;49.140;9.234;2022-12-07T10:13:20;6.50;99.90
20446;DHT22;10382;49.140;9.234;2022-12-07T10:15:50;6.50;99.90
20446;DHT22;10382;49.140;9.234;2022-12-07T10:18:30;6.70;99.90
20446;DHT22;10382;49.140;9.234;2022-12-07T10:21:03;6.80;99.90
20446;DHT22;10382;49.140;9.234;2022-12-07T10:23:30;6.80;99.90
20446;DHT22;10382;49.140;9.234;2022-12-07T10:25:57;6.90;99.90
20446;DHT22;10382;49.140;9.234;2022-12-07T10:28:34;7.00;99.90
20446;DHT22;10382;49.140;9.234;2022-12-07T10:31:03;7.10;99.90
20446;DHT22;10382;49.140;9.234;2022-12-07T10:33:51;7.10;99.90
20446;DHT22;10382;49.140;9.234;2022-12-07T10:36:21;7.10;99.90
20446;DHT22;10382;49.140;9.234;2022-12-07T10:38:50;7.00;99.90
20446;DHT22;10382;49.140;9.234;2022-12-07T10:41:17;6.80;99.90
20446;DHT22;10382;49.140;9.234;2022-12-07T10:43:50;6.70;99.90
20446;DHT22;10382;49.140;9.234;2022-12-07T10:46:56;6.70;99.90
20446;DHT22;10382;49.140;9.234;2022-12-07T10:49:47;6.70;99.90
20446;DHT22;10382;49.140;9.234;2022-12-07T10:52:32;6.60;99.90
20446;DHT22;10382;49.140;9.234;2022-12-07T10:55:13;6.60;99.90
20446;DHT22;10382;49.140;9.234;2022-12-07T10:57:47;6.60;99.90
20446;DHT22;10382;49.140;9.234;2022-12-07T11:00:22;6.50;99.90
20446;DHT22;10382;49.140;9.234;2022-12-07T11:02:58;6.40;99.90
20446;DHT22;10382;49.140;9.234;2022-12-07T11:05:39;6.30;99.90
20446;DHT22;10382;49.140;9.234;2022-12-07T11:08:16;6.40;99.90
20446;DHT22;10382;49.140;9.234;2022-12-07T11:10:48;6.30;99.90
20446;DHT22;10382;49.140;9.234;2022-12-07T11:13:27;6.30;99.90
20446;DHT22;10382;49.140;9.234;2022-12-07T11:16:02;6.40;99.90
20446;DHT22;10382;49.140;9.234;2022-12-07T11:18:39;6.50;99.90
20446;DHT22;10382;49.140;9.234;2022-12-07T11:21:13;6.50;99.90
20446;DHT22;10382;49.140;9.234;2022-12-07T11:23:48;6.50;99.90
20446;DHT22;10382;49.140;9.234;2022-12-07T11:26:26;6.60;99.90
20446;DHT22;10382;49.140;9.234;2022-12-07T11:29:09;6.60;99.90
20446;DHT22;10382;49.140;9.234;2022-12-07T11:31:52;6.60;99.90
20446;DHT22;10382;49.140;9.234;2022-12-07T11:34:29;6.60;99.90
20446;DHT22;10382;49.140;9.234;2022-12-07T11:37:01;6.80;99.90
20446;DHT22;10382;49.140;9.234;2022-12-07T11:39:33;6.80;99.90
20446;DHT22;10382;49.140;9.234;2022-12-07T11:42:06;6.90;99.90
20446;DHT22;10382;49.140;9.234;2022-12-07T11:44:42;6.90;99.90
20446;DHT22;10382;49.140;9.234;2022-12-07T11:47:17;6.80;99.90
20446;DHT22;10382;49.140;9.234;2022-12-07T11:49:52;6.70;99.90
20446;DHT22;10382;49.140;9.234;2022-12-07T11:52:26;6.60;99.90
20446;DHT22;10382;49.140;9.234;2022-12-07T11:54:54;6.50;99.90
20446;DHT22;10382;49.140;9.234;2022-12-07T11:57:27;6.50;99.90
20446;DHT22;10382;49.140;9.234;2022-12-07T11:59:59;6.30;99.90
20446;DHT22;10382;49.140;9.234;2022-12-07T12:02:33;6.30;99.90
20446;DHT22;10382;49.140;9.234;2022-12-07T12:05:12;6.40;99.90
20446;DHT22;10382;49.140;9.234;2022-12-07T12:07:43;6.40;99.90
20446;DHT22;10382;49.140;9.234;2022-12-07T12:10:19;6.50;99.90
20446;DHT22;10382;49.140;9.234;2022-12-07T12:13:08;6.50;99.90
20446;DHT22;10382;49.140;9.234;2022-12-07T12:15:44;6.50;99.90
20446;DHT22;10382;49.140;9.234;2022-12-07T12:18:34;6.60;99.90
20446;DHT22;10382;49.140;9.234;2022-12-07T12:21:08;6.70;99.90
20446;DHT22;10382;49.140;9.234;2022-12-07T12:23:41;6.60;99.90
20446;DHT22;10382;49.140;9.234;2022-12-07T12:26:16;6.40;99.90
20446;DHT22;10382;49.140;9.234;2022-12-07T12:28:52;6.30;99.90
20446;DHT22;10382;49.140;9.234;2022-12-07T12:31:33;6.30;99.90
20446;DHT22;10382;49.140;9.234;2022-12-07T12:34:03;6.40;99.90
20446;DHT22;10382;49.140;9.234;2022-12-07T12:36:45;6.50;99.90
20446;DHT22;10382;49.140;9.234;2022-12-07T12:39:15;6.60;99.90
20446;DHT22;10382;49.140;9.234;2022-12-07T12:42:00;6.80;99.90
20446;DHT22;10382;49.140;9.234;2022-12-07T12:47:58;7.00;99.90
20446;DHT22;10382;49.140;9.234;2022-12-07T12:50:30;6.80;99.90
20446;DHT22;10382;49.140;9.234;2022-12-07T12:53:12;6.80;99.90
20446;DHT22;10382;49.140;9.234;2022-12-07T12:58:44;7.10;99.90
20446;DHT22;10382;49.140;9.234;2022-12-07T13:01:45;7.10;99.90
20446;DHT22;10382;49.140;9.234;2022-12-07T13:04:27;7.20;99.90
20446;DHT22;10382;49.140;9.234;2022-12-07T13:06:55;7.20;99.90
20446;DHT22;10382;49.140;9.234;2022-12-07T13:09:25;7.20;99.90
20446;DHT22;10382;49.140;9.234;2022-12-07T13:12:01;7.30;99.90
20446;DHT22;10382;49.140;9.234;2022-12-07T13:14:58;7.20;99.90
20446;DHT22;10382;49.140;9.234;2022-12-07T13:17:58;7.00;99.90
20446;DHT22;10382;49.140;9.234;2022-12-07T13:20:50;6.90;99.90
20446;DHT22;10382;49.140;9.234;2022-12-07T13:23:26;6.90;99.90
20446;DHT22;10382;49.140;9.234;2022-12-07T13:25:59;7.00;99.90
20446;DHT22;10382;49.140;9.234;2022-12-07T13:28:33;7.00;99.90
20446;DHT22;10382;49.140;9.234;2022-12-07T13:31:16;7.00;99.90
20446;DHT22;10382;49.140;9.234;2022-12-07T13:33:47;7.10;99.90
20446;DHT22;10382;49.140;9.234;2022-12-07T13:36:20;7.20;99.90
20446;DHT22;10382;49.140;9.234;2022-12-07T13:38:52;7.20;99.90
20446;DHT22;10382;49.140;9.234;2022-12-07T13:41:21;7.30;99.90
20446;DHT22;10382;49.140;9.234;2022-12-07T13:43:53;7.30;99.90
20446;DHT22;10382;49.140;9.234;2022-12-07T13:46:26;7.10;99.90
20446;DHT22;10382;49.140;9.234;2022-12-07T13:48:57;7.00;99.90
20446;DHT22;10382;49.140;9.234;2022-12-07T13:51:25;6.90;99.90
20446;DHT22;10382;49.140;9.234;2022-12-07T13:53:55;6.90;99.90
20446;DHT22;10382;49.140;9.234;2022-12-07T13:56:27;7.00;99.90
20446;DHT22;10382;49.140;9.234;2022-12-07T13:58:56;7.10;99.90
20446;DHT22;10382;49.140;9.234;2022-12-07T14:01:24;7.20;99.90
20446;DHT22;10382;49.140;9.234;2022-12-07T14:03:51;7.20;99.90
20446;DHT22;10382;49.140;9.234;2022-12-07T14:06:25;7.30;99.90
20446;DHT22;10382;49.140;9.234;2022-12-07T14:09:08;7.30;99.90
20446;DHT22;10382;49.140;9.234;2022-12-07T14:11:35;7.20;99.90
20446;DHT22;10382;49.140;9.234;2022-12-07T14:14:05;7.00;99.90
20446;DHT22;10382;49.140;9.234;2022-12-07T14:16:34;6.80;99.90
20446;DHT22;10382;49.140;9.234;2022-12-07T14:19:04;6.70;99.90
20446;DHT22;10382;49.140;9.234;2022-12-07T14:21:34;6.60;99.90
20446;DHT22;10382;49.140;9.234;2022-12-07T14:24:25;6.60;99.90
20446;DHT22;10382;49.140;9.234;2022-12-07T14:26:52;6.50;99.90
20446;DHT22;10382;49.140;9.234;2022-12-07T14:29:31;6.50;99.90
20446;DHT22;10382;49.140;9.234;2022-12-07T14:32:18;6.40;99.90
20446;DHT22;10382;49.140;9.234;2022-12-07T14:34:57;6.50;99.90
20446;DHT22;10382;49.140;9.234;2022-12-07T14:37:24;6.60;99.90
20446;DHT22;10382;49.140;9.234;2022-12-07T14:39:51;6.60;99.90
20446;DHT22;10382;49.140;9.234;2022-12-07T14:42:18;6.70;99.90
20446;DHT22;10382;49.140;9.234;2022-12-07T14:44:47;6.70;99.90
20446;DHT22;10382;49.140;9.234;2022-12-07T14:47:14;6.60;99.90
20446;DHT22;10382;49.140;9.234;2022-12-07T14:49:41;6.50;99.90
20446;DHT22;10382;49.140;9.234;2022-12-07T14:52:14;6.50;99.90
20446;DHT22;10382;49.140;9.234;2022-12-07T14:54:42;6.50;99.90
20446;DHT22;10382;49.140;9.234;2022-12-07T14:57:09;6.50;99.90
20446;DHT22;10382;49.140;9.234;2022-12-07T14:59:36;6.40;99.90
20446;DHT22;10382;49.140;9.234;2022-12-07T15:02:05;6.30;99.90
20446;DHT22;10382;49.140;9.234;2022-12-07T15:04:32;6.30;99.90
20446;DHT22;10382;49.140;9.234;2022-12-07T15:07:02;6.20;99.90
20446;DHT22;10382;49.140;9.234;2022-12-07T15:09:29;6.20;99.90
20446;DHT22;10382;49.140;9.234;2022-12-07T15:11:56;6.20;99.90
20446;DHT22;10382;49.140;9.234;2022-12-07T15:14:23;6.20;99.90
20446;DHT22;10382;49.140;9.234;2022-12-07T15:16:50;6.20;99.90
20446;DHT22;10382;49.140;9.234;2022-12-07T15:19:20;6.10;99.90
20446;DHT22;10382;49.140;9.234;2022-12-07T15:21:48;6.00;99.90
20446;DHT22;10382;49.140;9.234;2022-12-07T15:24:15;6.00;99.90
20446;DHT22;10382;49.140;9.234;2022-12-07T15:26:42;6.00;99.90
20446;DHT22;10382;49.140;9.234;2022-12-07T15:29:10;6.00;99.90
20446;DHT22;10382;49.140;9.234;2022-12-07T15:31:37;5.90;99.90
20446;DHT22;10382;49.140;9.234;2022-12-07T15:34:04;5.80;99.90
20446;DHT22;10382;49.140;9.234;2022-12-07T15:36:33;5.80;99.90
20446;DHT22;10382;49.140;9.234;2022-12-07T15:39:01;5.70;99.90
20446;DHT22;10382;49.140;9.234;2022-12-07T15:41:28;5.70;99.90
20446;DHT22;10382;49.140;9.234;2022-12-07T15:43:54;5.60;99.90
20446;DHT22;10382;49.140;9.234;2022-12-07T15:46:40;5.60;99.90
20446;DHT22;10382;49.140;9.234;2022-12-07T15:49:12;5.60;99.90
20446;DHT22;10382;49.140;9.234;2022-12-07T15:51:41;5.60;99.90
20446;DHT22;10382;49.140;9.234;2022-12-07T15:54:11;5.60;99.90
20446;DHT22;10382;49.140;9.234;2022-12-07T15:56:39;5.60;99.90
20446;DHT22;10382;49.140;9.234;2022-12-07T15:59:06;5.60;99.90
20446;DHT22;10382;49.140;9.234;2022-12-07T16:01:33;5.60;99.90
20446;DHT22;10382;49.140;9.234;2022-12-07T16:03:59;5.50;99.90
20446;DHT22;10382;49.140;9.234;2022-12-07T16:06:26;5.50;99.90
20446;DHT22;10382;49.140;9.234;2022-12-07T16:08:54;5.50;99.90
20446;DHT22;10382;49.140;9.234;2022-12-07T16:11:21;5.50;99.90
20446;DHT22;10382;49.140;9.234;2022-12-07T16:13:48;5.60;99.90
20446;DHT22;10382;49.140;9.234;2022-12-07T16:16:16;5.70;99.90
20446;DHT22;10382;49.140;9.234;2022-12-07T16:18:45;5.80;99.90